createdAt,value
2019-02-20T00:01:48.094Z,42.26
2019-02-20T00:06:50.789Z,42.16
2019-02-20T00:11:53.437Z,42.09
2019-02-20T00:16:56.108Z,42.02
2019-02-20T00:21:58.812Z,41.87
2019-02-20T00:27:01.460Z,41.81
2019-02-20T00:32:04.159Z,41.78
2019-02-20T00:37:06.808Z,41.70
2019-02-20T00:42:09.508Z,41.58
2019-02-20T00:47:13.804Z,41.46
2019-02-20T00:52:30.084Z,41.42
2019-02-20T00:57:32.747Z,41.29
2019-02-20T01:02:35.404Z,41.27
2019-02-20T01:07:38.056Z,41.24
2019-02-20T01:12:40.705Z,41.11
2019-02-20T01:17:43.369Z,41.02
2019-02-20T01:22:46.031Z,40.98
2019-02-20T01:27:48.696Z,40.93
2019-02-20T01:32:51.396Z,40.82
2019-02-20T01:37:54.088Z,40.80
2019-02-20T01:42:56.816Z,40.75
2019-02-20T01:47:59.490Z,40.70
2019-02-20T01:53:09.996Z,40.70
2019-02-20T01:58:06.463Z,40.69
2019-02-20T02:03:09.168Z,40.63
2019-02-20T02:08:11.848Z,40.56
2019-02-20T02:13:14.516Z,40.47
2019-02-20T02:18:17.180Z,40.45
2019-02-20T02:23:20.202Z,40.47
2019-02-20T02:28:22.892Z,40.42
2019-02-20T02:33:25.558Z,40.37
2019-02-20T02:38:28.238Z,40.32
2019-02-20T02:43:30.890Z,40.31
2019-02-20T02:48:33.553Z,40.27
2019-02-20T02:53:36.238Z,40.24
2019-02-20T02:58:38.911Z,40.25
2019-02-20T03:03:41.637Z,40.30
2019-02-20T03:08:44.315Z,40.20
2019-02-20T03:13:47.023Z,40.23
2019-02-20T03:18:49.680Z,40.27
2019-02-20T03:23:52.328Z,40.22
2019-02-20T03:28:55.000Z,40.18
2019-02-20T03:33:57.682Z,40.15
2019-02-20T03:39:00.327Z,40.17
2019-02-20T03:44:03.004Z,40.15
2019-02-20T03:49:05.674Z,40.19
2019-02-20T03:54:08.368Z,40.16
2019-02-20T03:59:11.059Z,40.12
2019-02-20T04:04:13.797Z,40.06
2019-02-20T04:09:16.453Z,40.06
2019-02-20T04:14:19.163Z,40.05
2019-02-20T04:19:21.834Z,39.99
2019-02-20T04:24:24.508Z,40.00
2019-02-20T04:29:27.160Z,39.98
2019-02-20T04:34:29.832Z,39.98
2019-02-20T04:39:32.481Z,39.95
2019-02-20T04:44:35.180Z,39.90
2019-02-20T04:49:37.863Z,39.86
2019-02-20T04:54:40.531Z,39.82
2019-02-20T04:59:43.187Z,39.75
2019-02-20T05:04:45.829Z,39.88
2019-02-20T05:09:48.495Z,39.92
2019-02-20T05:14:51.156Z,39.83
2019-02-20T05:19:53.833Z,39.80
2019-02-20T05:24:56.508Z,39.79
2019-02-20T05:29:59.214Z,40.23
2019-02-20T05:35:01.944Z,40.75
2019-02-20T05:40:05.159Z,44.46
2019-02-20T05:45:07.871Z,43.63
2019-02-20T05:50:10.562Z,43.08
2019-02-20T05:55:13.236Z,42.65
2019-02-20T06:00:15.908Z,42.17
2019-02-20T06:05:18.584Z,41.94
2019-02-20T06:10:21.305Z,41.70
2019-02-20T06:15:23.976Z,41.47
2019-02-20T06:20:26.653Z,41.24
2019-02-20T06:25:29.340Z,41.17
2019-02-20T06:30:32.013Z,41.06
2019-02-20T06:35:34.654Z,40.88
2019-02-20T06:40:37.352Z,40.84
2019-02-20T06:45:40.135Z,40.75
2019-02-20T06:50:42.798Z,40.70
2019-02-20T06:55:45.454Z,40.61
2019-02-20T07:00:48.128Z,40.53
2019-02-20T07:06:11.615Z,40.43
2019-02-20T07:11:34.404Z,40.33
2019-02-20T07:16:41.765Z,40.23
2019-02-20T07:21:46.077Z,40.15
2019-02-20T07:26:56.339Z,40.11
2019-02-20T07:31:59.012Z,40.04
2019-02-20T07:37:01.680Z,40.00
2019-02-20T07:42:04.357Z,39.94
2019-02-20T07:47:07.023Z,39.97
2019-02-20T07:52:09.699Z,39.84
2019-02-20T07:57:12.378Z,39.86
2019-02-20T08:02:15.076Z,39.81
2019-02-20T08:07:17.756Z,39.77
2019-02-20T08:12:20.420Z,39.74
2019-02-20T08:17:23.072Z,39.69
2019-02-20T08:22:25.740Z,39.62
2019-02-20T08:27:28.408Z,39.58
2019-02-20T08:32:31.064Z,39.55
2019-02-20T08:37:33.730Z,39.51
2019-02-20T08:42:36.543Z,39.44
2019-02-20T08:47:39.240Z,39.44
2019-02-20T08:52:41.920Z,39.42
2019-02-20T08:57:44.584Z,39.29
2019-02-20T09:02:47.239Z,39.30
2019-02-20T09:07:49.904Z,39.22
2019-02-20T09:12:52.688Z,39.18
2019-02-20T09:17:55.340Z,39.13
2019-02-20T09:22:57.994Z,39.08
2019-02-20T09:28:00.672Z,39.04
2019-02-20T09:33:03.335Z,39.01
2019-02-20T09:38:05.972Z,38.97
2019-02-20T09:43:08.640Z,38.89
2019-02-20T09:48:11.295Z,38.86
2019-02-20T09:53:13.952Z,38.78
2019-02-20T09:58:16.620Z,38.81
2019-02-20T10:03:19.298Z,38.78
2019-02-20T10:08:21.974Z,38.75
2019-02-20T10:13:24.653Z,38.74
2019-02-20T10:18:27.317Z,38.69
2019-02-20T10:23:29.984Z,38.67
2019-02-20T10:28:32.643Z,38.57
2019-02-20T10:33:35.301Z,38.57
2019-02-20T10:38:37.943Z,38.50
2019-02-20T10:43:40.608Z,38.42
2019-02-20T10:48:43.261Z,38.30
2019-02-20T10:53:45.923Z,38.29
2019-02-20T10:58:48.600Z,38.28
2019-02-20T11:03:51.256Z,38.30
2019-02-20T11:08:53.936Z,38.25
2019-02-20T11:13:56.609Z,38.20
2019-02-20T11:18:59.252Z,38.20
2019-02-20T11:24:01.920Z,38.18
2019-02-20T11:29:04.580Z,38.15
2019-02-20T11:34:07.240Z,38.15
2019-02-20T11:39:11.606Z,38.09
2019-02-20T11:44:20.831Z,38.10
2019-02-20T11:49:18.558Z,37.96
2019-02-20T11:54:21.213Z,37.88
2019-02-20T11:59:23.865Z,37.89
2019-02-20T12:04:26.559Z,37.78
2019-02-20T12:09:29.232Z,37.58
2019-02-20T12:14:31.896Z,37.33
2019-02-20T12:19:34.547Z,37.05
2019-02-20T12:24:37.208Z,36.55
2019-02-20T12:29:39.857Z,36.32
2019-02-20T12:39:44.301Z,36.03
2019-02-20T12:44:47.012Z,35.95
2019-02-20T12:49:51.448Z,36.29
2019-02-20T12:54:54.011Z,35.77
2019-02-20T12:59:56.675Z,35.40
2019-02-20T13:04:59.340Z,35.97
2019-02-20T13:10:02.009Z,35.90
2019-02-20T13:15:06.089Z,36.02
2019-02-20T13:20:09.637Z,36.18
2019-02-20T13:25:12.328Z,36.48
2019-02-20T13:30:14.985Z,36.67
2019-02-20T13:35:18.695Z,36.88
2019-02-20T13:40:22.504Z,37.07
2019-02-20T13:45:25.169Z,37.18
2019-02-20T13:50:27.822Z,37.32
2019-02-20T13:55:34.595Z,37.43
2019-02-20T14:00:34.874Z,37.47
2019-02-20T14:05:37.785Z,37.56
2019-02-20T14:10:40.451Z,37.60
2019-02-20T14:15:43.116Z,37.66
2019-02-20T14:20:45.853Z,37.77
2019-02-20T14:25:48.518Z,37.82
2019-02-20T14:30:51.168Z,37.84
2019-02-20T14:36:30.820Z,37.85
2019-02-20T14:42:01.043Z,37.88
2019-02-20T14:47:03.778Z,37.93
2019-02-20T14:52:06.459Z,37.91
2019-02-20T14:57:09.123Z,37.95
2019-02-20T15:02:11.790Z,38.03
2019-02-20T15:07:14.488Z,38.05
2019-02-20T15:12:17.210Z,38.08
2019-02-20T15:17:19.916Z,38.06
2019-02-20T15:22:22.565Z,38.10
2019-02-20T15:27:28.721Z,38.10
2019-02-20T15:32:29.835Z,38.11
2019-02-20T15:37:32.516Z,38.17
2019-02-20T15:42:35.165Z,38.18
2019-02-20T15:47:37.860Z,38.19
2019-02-20T15:52:40.525Z,38.19
2019-02-20T15:57:43.169Z,38.21
2019-02-20T16:02:45.852Z,38.22
2019-02-20T16:07:48.823Z,38.25
2019-02-20T16:12:51.485Z,38.27
2019-02-20T16:17:54.129Z,38.29
2019-02-20T16:22:56.803Z,38.28
2019-02-20T16:27:59.443Z,38.33
2019-02-20T16:33:02.115Z,38.28
2019-02-20T16:38:04.779Z,38.40
2019-02-20T16:43:07.436Z,38.47
2019-02-20T16:48:10.505Z,38.51
2019-02-20T16:53:13.168Z,38.53
2019-02-20T16:58:15.904Z,38.55
2019-02-20T17:03:18.580Z,38.58
2019-02-20T17:08:21.629Z,38.73
2019-02-20T17:13:24.308Z,39.10
2019-02-20T17:18:27.039Z,39.68
2019-02-20T17:23:29.704Z,39.80
2019-02-20T17:28:32.347Z,39.91
2019-02-20T17:33:35.044Z,40.05
2019-02-20T17:38:37.706Z,40.21
2019-02-20T17:43:40.388Z,40.42
2019-02-20T17:48:43.148Z,40.53
2019-02-20T17:53:46.096Z,40.64
2019-02-20T17:58:48.747Z,40.69
2019-02-20T18:03:51.441Z,40.79
2019-02-20T18:08:54.100Z,40.88
2019-02-20T18:13:56.814Z,40.81
2019-02-20T18:18:59.485Z,40.94
2019-02-20T18:24:02.134Z,40.90
2019-02-20T18:29:04.799Z,40.88
2019-02-20T18:34:07.478Z,41.64
2019-02-20T18:39:10.153Z,42.09
2019-02-20T18:44:12.826Z,42.29
2019-02-20T18:49:15.525Z,42.38
2019-02-20T18:54:18.179Z,42.39
2019-02-20T18:59:20.839Z,42.43
2019-02-20T19:04:46.668Z,42.49
2019-02-20T19:09:40.657Z,42.57
2019-02-20T19:14:57.178Z,42.63
2019-02-20T19:20:04.208Z,42.47
2019-02-20T19:25:11.349Z,42.34
2019-02-20T19:30:32.061Z,42.22
2019-02-20T19:35:36.321Z,42.16
2019-02-20T19:40:40.617Z,42.04
2019-02-20T19:46:01.387Z,41.88
2019-02-20T19:51:05.666Z,41.77
2019-02-20T19:56:25.300Z,41.66
2019-02-20T20:01:48.296Z,42.55
2019-02-20T20:07:02.735Z,43.53
2019-02-20T20:12:16.100Z,43.84
2019-02-20T20:17:20.427Z,43.79
2019-02-20T20:22:37.023Z,43.77
2019-02-20T20:27:44.019Z,43.76
2019-02-20T20:33:05.348Z,43.84
2019-02-20T20:38:09.611Z,44.31
2019-02-20T20:43:17.059Z,46.83
2019-02-20T20:48:24.571Z,49.64
2019-02-20T20:53:51.104Z,50.98
2019-02-20T20:58:58.375Z,51.51
2019-02-20T21:04:05.473Z,52.07
2019-02-20T21:09:09.761Z,52.58
2019-02-20T21:14:14.039Z,53.10
2019-02-20T21:19:27.581Z,53.44
2019-02-20T21:24:34.956Z,53.99
2019-02-20T21:29:39.251Z,54.25
2019-02-20T21:34:52.853Z,54.66
2019-02-20T21:39:57.163Z,55.05
2019-02-20T21:45:01.493Z,55.39
2019-02-20T21:50:05.777Z,55.70
2019-02-20T21:55:26.463Z,55.96
2019-02-20T22:00:36.927Z,56.14
2019-02-20T22:05:41.208Z,56.43
2019-02-20T22:10:54.677Z,56.65
2019-02-20T22:15:58.966Z,56.82
2019-02-20T22:21:03.328Z,56.79
2019-02-20T22:26:10.659Z,56.76
2019-02-20T22:31:30.188Z,56.91
2019-02-20T22:36:40.193Z,56.92
2019-02-20T22:42:02.748Z,56.84
2019-02-20T22:47:22.136Z,56.83
2019-02-20T22:52:26.420Z,56.80
2019-02-20T22:57:46.086Z,56.73
2019-02-20T23:02:53.288Z,56.75
2019-02-20T23:08:06.712Z,56.72
2019-02-20T23:13:11.036Z,56.85
2019-02-20T23:18:13.711Z,57.00
2019-02-20T23:23:16.376Z,57.02
2019-02-20T23:28:19.046Z,57.10
2019-02-20T23:33:21.717Z,57.12
2019-02-20T23:38:24.387Z,57.31
2019-02-20T23:43:27.066Z,57.24
2019-02-20T23:48:29.728Z,57.32
2019-02-20T23:53:32.419Z,57.38
2019-02-20T23:58:35.069Z,57.31
